Time;durP1;ratioP1;P1;durP2;ratioP2;P2;SDS_P1;SDS_P2;PMS_P1;PMS_P2;Temp;Humidity;BMP_temperature;BMP_pressure;BME280_temperature;BME280_humidity;BME280_pressure;Samples;Min_cycle;Max_cycle;Signal;HPM_P1;HPM_P2
2022/06/18 00:01:33;;;;;;;9.38;5.05;;;26.30;66.30;;;;;;4976921;28;20027;-68
2022/06/18 00:04:01;;;;;;;9.68;5.18;;;26.30;66.30;;;;;;4976867;28;20031;-68
2022/06/18 00:06:28;;;;;;;10.82;5.60;;;26.30;66.70;;;;;;4976721;28;20484;-70
2022/06/18 00:08:54;;;;;;;10.93;5.00;;;26.20;66.60;;;;;;4976540;28;20031;-69
2022/06/18 00:14:04;;;;;;;9.38;5.10;;;26.20;67.10;;;;;;4976691;28;20392;-68
2022/06/18 00:16:31;;;;;;;13.02;5.68;;;26.20;67.20;;;;;;4976526;28;20023;-72
2022/06/18 00:18:57;;;;;;;11.32;5.05;;;26.20;67.20;;;;;;4976755;28;20366;-68
2022/06/18 00:21:25;;;;;;;13.55;5.65;;;26.20;67.20;;;;;;4976377;28;20098;-69
2022/06/18 00:23:52;;;;;;;12.50;5.85;;;26.20;67.20;;;;;;4976388;28;20031;-68
2022/06/18 00:26:18;;;;;;;9.10;5.10;;;26.20;67.30;;;;;;4976363;28;20022;-69
2022/06/18 00:28:44;;;;;;;8.82;4.90;;;26.20;67.30;;;;;;4974975;28;20042;-69
2022/06/18 00:31:10;;;;;;;9.48;5.53;;;26.20;67.50;;;;;;4976406;28;20030;-70
2022/06/18 00:33:39;;;;;;;12.75;5.35;;;26.10;67.80;;;;;;4976387;28;20030;-69
2022/06/18 00:36:11;;;;;;;11.60;5.72;;;26.10;68.00;;;;;;4976525;28;20122;-72
2022/06/18 00:38:42;;;;;;;11.82;5.53;;;26.10;67.90;;;;;;4976483;28;20027;-69
2022/06/18 00:41:25;;;;;;;9.52;5.55;;;26.10;68.00;;;;;;4976227;28;20031;-68
2022/06/18 00:44:07;;;;;;;11.25;5.35;;;26.10;68.10;;;;;;4976128;28;20019;-69
2022/06/18 00:46:54;;;;;;;9.75;4.82;;;26.00;67.90;;;;;;4976087;28;20023;-69
2022/06/18 00:49:49;;;;;;;8.23;5.28;;;26.00;67.70;;;;;;4975564;28;20057;-70
2022/06/18 00:52:22;;;;;;;11.30;5.80;;;26.00;68.20;;;;;;4972865;28;20501;-69
2022/06/18 00:55:03;;;;;;;9.82;5.28;;;26.00;69.00;;;;;;4975779;28;20030;-68
2022/06/18 00:57:52;;;;;;;10.65;5.40;;;25.90;69.10;;;;;;4975780;28;20078;-68
2022/06/18 01:00:25;;;;;;;8.65;5.10;;;25.90;69.20;;;;;;4974540;28;20027;-69
2022/06/18 01:02:52;;;;;;;11.73;5.90;;;25.90;69.20;;;;;;4975808;28;20026;-70
2022/06/18 01:05:35;;;;;;;13.23;5.47;;;25.90;69.20;;;;;;4975785;28;20022;-68
2022/06/18 01:08:10;;;;;;;11.35;5.40;;;25.90;69.50;;;;;;4975444;28;20066;-70
2022/06/18 01:10:41;;;;;;;13.02;5.55;;;25.90;69.50;;;;;;4975481;28;20077;-68
2022/06/18 01:13:10;;;;;;;9.45;5.28;;;25.90;69.80;;;;;;4974224;28;20515;-68
2022/06/18 01:15:38;;;;;;;11.93;5.65;;;25.90;70.30;;;;;;4975894;28;20145;-69
2022/06/18 01:18:05;;;;;;;11.18;5.47;;;25.80;70.20;;;;;;4975335;28;20046;-68
2022/06/18 01:20:36;;;;;;;13.27;5.43;;;25.70;71.30;;;;;;4975276;28;20466;-70
2022/06/18 01:23:29;;;;;;;12.32;7.68;;;25.70;71.10;;;;;;4975226;28;20038;-71
2022/06/18 01:25:55;;;;;;;13.20;6.07;;;25.70;70.20;;;;;;4975272;28;20384;-67
2022/06/18 01:28:22;;;;;;;12.43;5.72;;;25.60;71.20;;;;;;4975153;28;20041;-68
2022/06/18 01:30:48;;;;;;;10.88;5.72;;;25.50;71.30;;;;;;4975134;28;20031;-67
2022/06/18 01:33:15;;;;;;;11.25;5.00;;;25.60;71.20;;;;;;4975159;28;20506;-68
2022/06/18 01:35:44;;;;;;;10.90;5.82;;;25.50;71.60;;;;;;4975119;28;20023;-69
2022/06/18 01:38:11;;;;;;;13.73;5.57;;;25.50;71.50;;;;;;4973881;28;20392;-69
2022/06/18 01:40:42;;;;;;;10.15;6.18;;;25.50;71.10;;;;;;4975210;28;20065;-69
2022/06/18 01:43:12;;;;;;;8.65;4.90;;;25.50;71.00;;;;;;4974942;28;20054;-69
2022/06/18 01:45:40;;;;;;;10.35;4.78;;;25.40;71.00;;;;;;4975096;28;20038;-70
2022/06/18 01:48:27;;;;;;;11.40;5.47;;;25.30;72.00;;;;;;4975044;28;20109;-69
2022/06/18 01:51:02;;;;;;;13.27;5.07;;;25.30;70.20;;;;;;4974748;28;20143;-72
2022/06/18 01:53:44;;;;;;;11.50;5.53;;;25.30;70.10;;;;;;4975156;28;20035;-69
2022/06/18 01:56:17;;;;;;;11.55;5.00;;;25.30;70.70;;;;;;4975466;28;20062;-69
2022/06/18 01:58:51;;;;;;;11.05;5.32;;;25.30;70.70;;;;;;4975047;28;20057;-70
2022/06/18 02:01:24;;;;;;;8.77;4.72;;;25.30;70.60;;;;;;4974206;28;20019;-70
2022/06/18 02:03:54;;;;;;;8.52;5.30;;;25.10;70.60;;;;;;4974740;28;20424;-69
2022/06/18 02:06:20;;;;;;;10.77;4.90;;;25.10;69.70;;;;;;4974664;28;20109;-69
2022/06/18 02:08:47;;;;;;;8.65;4.88;;;25.10;70.70;;;;;;4973523;28;20058;-68
2022/06/18 02:11:15;;;;;;;10.35;4.93;;;25.10;71.00;;;;;;4974544;28;20074;-69
2022/06/18 02:13:49;;;;;;;13.00;5.60;;;25.10;71.70;;;;;;4974372;28;20035;-68
2022/06/18 02:16:24;;;;;;;9.25;5.10;;;25.00;72.10;;;;;;4974820;28;20105;-68
2022/06/18 02:18:50;;;;;;;10.07;5.18;;;24.90;71.00;;;;;;4989319;28;20398;-68
2022/06/18 02:21:21;;;;;;;11.35;5.30;;;24.90;71.80;;;;;;4974348;28;20380;-68
2022/06/18 02:23:49;;;;;;;9.85;4.97;;;24.80;72.10;;;;;;4974486;28;20050;-70
2022/06/18 02:26:15;;;;;;;11.60;5.43;;;24.80;71.50;;;;;;4974751;28;20019;-69
2022/06/18 02:28:42;;;;;;;8.95;4.75;;;24.90;71.40;;;;;;4975157;28;20551;-70
2022/06/18 02:31:19;;;;;;;8.68;4.55;;;24.90;71.30;;;;;;4975513;28;20019;-69
2022/06/18 02:34:01;;;;;;;10.20;4.95;;;24.90;71.20;;;;;;4974514;28;20145;-68
2022/06/18 02:36:36;;;;;;;10.35;5.30;;;25.00;70.90;;;;;;4974439;28;20423;-69
2022/06/18 02:39:32;;;;;;;10.48;4.60;;;24.90;70.10;;;;;;4974790;28;20027;-72
2022/06/18 02:42:12;;;;;;;9.20;4.78;;;24.80;69.70;;;;;;4965305;28;20110;-71
2022/06/18 02:44:40;;;;;;;10.45;4.63;;;24.70;70.80;;;;;;4974220;28;20054;-68
2022/06/18 02:47:06;;;;;;;12.40;5.00;;;24.80;70.50;;;;;;4974439;28;20164;-68
2022/06/18 02:49:36;;;;;;;9.43;4.82;;;24.80;70.20;;;;;;4974422;28;20143;-68
2022/06/18 02:52:04;;;;;;;9.32;5.10;;;24.80;70.40;;;;;;4974211;28;20043;-67
2022/06/18 02:54:30;;;;;;;9.60;4.90;;;24.80;70.10;;;;;;4974358;28;20026;-70
2022/06/18 02:57:00;;;;;;;10.95;5.10;;;24.80;70.30;;;;;;4973133;28;20031;-72
2022/06/18 02:59:27;;;;;;;9.50;4.90;;;24.80;70.50;;;;;;4974212;28;20552;-69
2022/06/18 03:01:52;;;;;;;9.90;5.35;;;24.70;70.10;;;;;;4974399;28;20576;-71
2022/06/18 03:04:18;;;;;;;12.85;5.53;;;24.70;69.90;;;;;;4974120;28;20124;-68
2022/06/18 03:06:44;;;;;;;10.98;4.93;;;24.70;69.90;;;;;;4974109;28;20034;-68
2022/06/18 03:09:10;;;;;;;9.70;5.38;;;24.70;70.00;;;;;;4973885;28;20574;-68
2022/06/18 03:14:21;;;;;;;8.50;4.60;;;24.70;69.30;;;;;;4977006;28;20487;-69
2022/06/18 03:16:47;;;;;;;7.03;4.93;;;24.60;69.70;;;;;;4977817;28;20089;-69
2022/06/18 03:19:35;;;;;;;11.15;4.82;;;24.70;69.80;;;;;;4977846;28;20113;-69
2022/06/18 03:22:16;;;;;;;9.73;5.50;;;24.60;70.00;;;;;;4977561;28;20078;-69
2022/06/18 03:24:42;;;;;;;8.73;4.90;;;24.60;69.80;;;;;;4977641;28;20376;-69
2022/06/18 03:27:14;;;;;;;10.30;4.82;;;24.60;69.90;;;;;;4977607;28;20053;-70
2022/06/18 03:29:39;;;;;;;10.25;5.13;;;24.50;69.80;;;;;;4977650;28;20527;-70
2022/06/18 03:32:06;;;;;;;14.82;4.65;;;24.50;69.80;;;;;;4977608;28;20027;-68
2022/06/18 03:34:32;;;;;;;14.13;5.25;;;24.40;69.70;;;;;;4977547;28;20026;-69
2022/06/18 03:36:58;;;;;;;10.70;5.10;;;24.40;70.10;;;;;;4977396;28;20509;-67
2022/06/18 03:39:24;;;;;;;10.90;5.57;;;24.40;70.00;;;;;;4977440;28;20102;-68
2022/06/18 03:41:50;;;;;;;14.23;5.65;;;24.40;70.10;;;;;;4977518;28;20078;-69
2022/06/18 03:44:16;;;;;;;12.38;5.22;;;24.40;69.70;;;;;;4977574;28;20019;-69
2022/06/18 03:46:43;;;;;;;12.18;5.28;;;24.40;69.70;;;;;;4977614;28;20077;-67
2022/06/18 03:49:22;;;;;;;9.88;5.15;;;24.40;69.70;;;;;;4977171;28;20038;-69
2022/06/18 03:51:48;;;;;;;10.00;4.93;;;24.50;69.80;;;;;;4977079;28;20062;-69
2022/06/18 03:54:13;;;;;;;10.48;4.90;;;24.50;69.20;;;;;;4977140;28;20023;-70
2022/06/18 03:56:40;;;;;;;11.38;5.30;;;24.50;69.20;;;;;;4977206;28;20110;-68
2022/06/18 03:59:06;;;;;;;8.60;5.10;;;24.50;68.10;;;;;;4977124;28;20023;-70
2022/06/18 04:01:33;;;;;;;12.20;5.00;;;24.40;68.70;;;;;;4976781;28;20034;-69
2022/06/18 04:03:59;;;;;;;10.32;5.05;;;24.50;68.70;;;;;;4977015;28;20142;-70
2022/06/18 04:06:25;;;;;;;10.43;4.97;;;24.50;68.60;;;;;;4977237;28;20058;-71
2022/06/18 04:08:51;;;;;;;9.05;4.50;;;24.50;68.40;;;;;;4977078;28;20041;-68
2022/06/18 04:11:17;;;;;;;12.30;5.18;;;24.60;68.70;;;;;;4976983;28;20531;-68
2022/06/18 04:13:43;;;;;;;12.27;5.82;;;24.60;68.80;;;;;;4977140;28;20102;-68
2022/06/18 04:16:10;;;;;;;10.57;5.50;;;24.60;68.80;;;;;;4977125;28;20034;-72
2022/06/18 04:18:36;;;;;;;11.90;5.50;;;24.50;69.00;;;;;;4977369;28;20019;-70
2022/06/18 04:21:02;;;;;;;11.75;5.97;;;24.50;69.50;;;;;;4976850;28;20070;-69
2022/06/18 04:23:29;;;;;;;12.35;5.28;;;24.60;69.60;;;;;;4976790;28;20037;-69
2022/06/18 04:25:55;;;;;;;10.82;5.65;;;24.60;69.20;;;;;;4976066;28;20026;-73
2022/06/18 04:28:21;;;;;;;17.77;5.90;;;24.50;69.40;;;;;;4976356;28;20487;-73
2022/06/18 04:30:47;;;;;;;11.52;5.45;;;24.50;69.30;;;;;;4976466;28;20034;-72
2022/06/18 04:33:13;;;;;;;9.00;4.97;;;24.50;69.20;;;;;;4976291;28;20054;-68
2022/06/18 04:35:39;;;;;;;11.75;4.85;;;24.50;68.90;;;;;;4976350;28;20420;-68
2022/06/18 04:38:06;;;;;;;8.55;4.65;;;24.40;68.30;;;;;;4976420;28;20481;-69
2022/06/18 04:40:33;;;;;;;11.07;4.90;;;24.40;68.30;;;;;;4974970;28;20042;-69
2022/06/18 04:43:10;;;;;;;9.63;4.53;;;24.40;67.90;;;;;;4976421;28;20019;-69
2022/06/18 04:45:37;;;;;;;8.45;4.60;;;24.40;67.50;;;;;;4976337;28;20532;-69
2022/06/18 04:48:04;;;;;;;9.45;4.93;;;24.40;67.30;;;;;;4974988;28;20034;-70
2022/06/18 04:50:33;;;;;;;13.25;4.80;;;24.50;67.20;;;;;;4976193;28;20078;-70
2022/06/18 04:52:58;;;;;;;8.65;5.00;;;24.50;67.00;;;;;;4976566;28;20110;-70
2022/06/18 04:55:26;;;;;;;7.90;4.80;;;24.50;66.70;;;;;;4976304;28;20058;-68
2022/06/18 04:57:52;;;;;;;13.07;5.05;;;24.50;66.70;;;;;;4976040;28;20030;-70
2022/06/18 05:00:18;;;;;;;12.15;4.93;;;24.50;66.70;;;;;;4975714;28;20027;-73
2022/06/18 05:02:44;;;;;;;9.43;4.78;;;24.50;66.60;;;;;;4976032;28;20095;-71
2022/06/18 05:05:17;;;;;;;8.73;4.90;;;24.50;66.30;;;;;;4974549;28;20150;-70
2022/06/18 05:07:43;;;;;;;10.73;4.43;;;24.60;66.20;;;;;;4975909;28;20448;-71
2022/06/18 05:10:10;;;;;;;11.13;4.93;;;24.70;65.70;;;;;;4975576;28;20066;-70
2022/06/18 05:12:36;;;;;;;10.82;5.18;;;24.80;65.30;;;;;;4975731;28;20388;-69
2022/06/18 05:15:03;;;;;;;9.63;4.22;;;25.00;64.00;;;;;;4975721;28;20030;-68
2022/06/18 05:17:32;;;;;;;13.25;4.28;;;25.10;62.70;;;;;;4975798;28;20027;-69
2022/06/18 05:19:58;;;;;;;11.57;3.85;;;25.40;61.80;;;;;;4974304;28;20062;-68
2022/06/18 05:22:25;;;;;;;9.15;3.65;;;25.80;60.20;;;;;;4990510;28;20035;-71
2022/06/18 05:24:51;;;;;;;8.65;3.80;;;26.20;58.30;;;;;;4975658;28;20105;-69
2022/06/18 05:27:30;;;;;;;6.20;3.58;;;26.50;56.60;;;;;;4975559;28;20118;-68
2022/06/18 05:29:56;;;;;;;7.15;3.85;;;27.00;54.60;;;;;;4975572;28;20157;-69
2022/06/18 05:32:22;;;;;;;8.52;3.90;;;27.50;54.80;;;;;;4975530;28;20105;-69
2022/06/18 05:34:47;;;;;;;9.15;3.78;;;27.80;53.50;;;;;;4975502;28;20026;-68
2022/06/18 05:37:18;;;;;;;9.70;3.90;;;28.10;53.00;;;;;;4973837;28;20031;-69
2022/06/18 05:39:44;;;;;;;9.80;3.60;;;28.40;52.40;;;;;;4975175;28;20023;-69
2022/06/18 05:42:10;;;;;;;7.45;3.65;;;28.70;51.20;;;;;;4975653;28;20034;-69
2022/06/18 05:44:37;;;;;;;8.88;3.90;;;28.90;50.30;;;;;;4975214;28;20023;-70
2022/06/18 05:47:18;;;;;;;6.85;3.38;;;29.20;49.90;;;;;;4990330;28;20050;-75
2022/06/18 05:49:44;;;;;;;6.90;3.83;;;29.30;47.50;;;;;;4976547;28;20070;-71
2022/06/18 05:52:11;;;;;;;9.35;4.18;;;29.60;48.70;;;;;;4991029;28;20042;-76
2022/06/18 05:54:37;;;;;;;7.47;3.60;;;29.80;47.90;;;;;;4975075;28;20494;-71
2022/06/18 05:57:03;;;;;;;7.63;3.75;;;30.00;47.40;;;;;;4975083;28;20031;-73
2022/06/18 05:59:30;;;;;;;7.57;3.50;;;30.00;47.00;;;;;;4974891;28;20503;-70
2022/06/18 06:01:56;;;;;;;9.55;3.75;;;29.90;47.10;;;;;;4975113;28;20027;-70
2022/06/18 06:04:23;;;;;;;9.43;3.95;;;30.00;47.60;;;;;;4973512;28;20023;-71
2022/06/18 06:06:51;;;;;;;8.32;4.30;;;30.20;48.50;;;;;;4975029;28;20242;-70
2022/06/18 06:11:28;;;;;;;10.40;4.40;;;30.30;46.80;;;;;;4974863;28;20453;-70
2022/06/18 06:12:05;;;;;;;10.73;3.63;;;30.50;46.40;;;;;;4974909;28;20035;-68
2022/06/18 06:14:31;;;;;;;8.15;3.55;;;30.50;45.70;;;;;;4974657;28;20055;-68
2022/06/18 06:16:59;;;;;;;8.70;3.50;;;30.60;45.90;;;;;;4974716;28;20034;-67
2022/06/18 06:19:25;;;;;;;8.15;3.70;;;30.60;44.80;;;;;;4975086;28;20468;-69
2022/06/18 06:21:51;;;;;;;6.07;3.20;;;30.60;45.10;;;;;;4975054;28;20158;-69
2022/06/18 06:24:17;;;;;;;7.35;3.75;;;30.80;44.80;;;;;;4974711;28;20030;-70
2022/06/18 06:26:43;;;;;;;10.13;4.03;;;30.90;44.40;;;;;;4974747;28;20098;-70
2022/06/18 06:29:10;;;;;;;8.30;3.85;;;31.00;44.60;;;;;;4989383;28;20233;-71
2022/06/18 06:31:36;;;;;;;8.38;3.97;;;31.10;44.40;;;;;;4974734;28;20042;-69
2022/06/18 06:34:01;;;;;;;8.15;3.40;;;31.10;44.30;;;;;;4974477;28;20078;-70
2022/06/18 06:36:28;;;;;;;8.60;3.38;;;31.10;43.60;;;;;;4974888;28;20027;-69
2022/06/18 06:38:54;;;;;;;8.45;3.50;;;31.10;43.50;;;;;;4974494;28;20034;-69
2022/06/18 06:41:23;;;;;;;6.00;3.35;;;31.00;43.50;;;;;;4974675;28;20035;-73
2022/06/18 06:43:49;;;;;;;10.52;4.18;;;31.10;43.70;;;;;;4974644;28;20094;-69
2022/06/18 06:46:16;;;;;;;8.45;3.80;;;31.30;44.20;;;;;;4973866;28;20026;-73
2022/06/18 06:48:42;;;;;;;11.50;4.07;;;31.30;43.50;;;;;;4974219;28;20562;-69
2022/06/18 06:51:23;;;;;;;14.07;3.55;;;31.50;44.20;;;;;;4974982;28;20047;-70
2022/06/18 06:53:49;;;;;;;11.20;3.72;;;31.70;42.80;;;;;;4974696;28;20150;-70
2022/06/18 06:59:03;;;;;;;9.98;3.70;;;31.90;43.60;;;;;;4974369;28;20084;-73
2022/06/18 07:01:30;;;;;;;7.72;3.45;;;32.00;42.60;;;;;;4975342;28;20452;-75
2022/06/18 07:03:58;;;;;;;10.75;3.90;;;31.90;41.70;;;;;;4995570;28;20404;-76
2022/06/18 07:06:24;;;;;;;11.20;3.80;;;31.90;42.20;;;;;;4976735;28;20023;-71
2022/06/18 07:08:50;;;;;;;13.65;4.05;;;32.00;42.00;;;;;;4997542;28;20108;-72
2022/06/18 07:11:16;;;;;;;10.65;3.53;;;32.20;41.80;;;;;;5014448;28;20034;-76
2022/06/18 07:13:46;;;;;;;8.07;3.50;;;32.30;41.40;;;;;;5012700;28;20022;-83
2022/06/18 07:16:14;;;;;;;9.30;3.67;;;32.50;41.80;;;;;;5013822;28;20022;-84
2022/06/18 07:18:43;;;;;;;9.85;3.78;;;32.60;40.80;;;;;;4993443;28;20137;-78
2022/06/18 07:21:16;;;;;;;9.65;2.92;;;32.70;40.70;;;;;;4988279;28;20492;-79
2022/06/18 07:23:42;;;;;;;;;;;32.80;40.30;;;;;;4978232;28;20034;-71
2022/06/18 07:26:10;;;;;;;10.40;3.70;;;32.90;39.00;;;;;;5000367;28;19909;-76
2022/06/18 07:28:36;;;;;;;10.68;4.25;;;32.90;40.00;;;;;;5004001;28;20105;-77
2022/06/18 07:31:03;;;;;;;8.57;3.60;;;32.90;39.40;;;;;;4998252;28;20038;-71
2022/06/18 07:33:33;;;;;;;11.77;3.00;;;33.00;39.30;;;;;;4992500;28;20542;-70
2022/06/18 07:35:59;;;;;;;7.80;3.65;;;32.80;38.50;;;;;;4993569;28;20034;-71
2022/06/18 07:38:27;;;;;;;7.47;3.00;;;32.70;38.80;;;;;;4995475;28;20030;-74
2022/06/18 07:40:55;;;;;;;8.30;2.90;;;32.80;39.20;;;;;;4993084;28;20447;-74
2022/06/18 07:43:23;;;;;;;9.68;3.20;;;32.80;38.50;;;;;;4997428;28;20030;-70
2022/06/18 07:45:50;;;;;;;5.07;2.83;;;32.90;38.00;;;;;;5006963;28;20030;-75
2022/06/18 07:48:15;;;;;;;9.65;3.17;;;32.90;37.70;;;;;;5001326;28;20030;-70
2022/06/18 07:50:46;;;;;;;8.18;3.20;;;32.80;37.70;;;;;;4980003;28;20042;-75
2022/06/18 07:53:23;;;;;;;7.72;3.03;;;32.90;38.10;;;;;;5007381;28;20037;-76
2022/06/18 07:55:50;;;;;;;13.38;3.03;;;32.90;37.10;;;;;;5013113;28;20052;-70
2022/06/18 07:58:16;;;;;;;5.60;2.50;;;32.80;37.30;;;;;;5012814;28;20045;-75
2022/06/18 08:00:43;;;;;;;7.05;2.50;;;32.80;36.90;;;;;;5014254;28;20072;-71
2022/06/18 08:03:12;;;;;;;8.50;2.60;;;32.70;35.40;;;;;;5015882;28;20029;-74
2022/06/18 08:05:38;;;;;;;5.15;2.50;;;32.50;34.20;;;;;;4997929;28;20022;-72
2022/06/18 08:08:05;;;;;;;10.05;2.63;;;32.40;34.80;;;;;;4976422;28;20031;-73
2022/06/18 08:10:34;;;;;;;6.25;2.10;;;32.30;33.80;;;;;;5003349;28;20076;-71
2022/06/18 08:13:00;;;;;;;6.20;2.90;;;32.20;33.60;;;;;;4996190;28;20376;-74
2022/06/18 08:15:26;;;;;;;5.85;1.90;;;32.20;33.60;;;;;;4995056;28;20044;-73
2022/06/18 08:17:51;;;;;;;5.95;2.35;;;32.20;33.80;;;;;;4996171;28;20018;-73
2022/06/18 08:20:17;;;;;;;8.35;2.05;;;32.10;33.20;;;;;;4995779;28;20034;-72
2022/06/18 08:22:47;;;;;;;3.88;2.17;;;32.10;33.80;;;;;;4993997;28;20031;-73
2022/06/18 08:25:16;;;;;;;7.50;2.42;;;32.10;33.60;;;;;;4995704;28;20026;-72
2022/06/18 08:27:43;;;;;;;9.65;2.65;;;32.20;34.00;;;;;;4995669;28;20050;-73
2022/06/18 08:30:09;;;;;;;6.82;2.30;;;32.10;33.80;;;;;;4986191;28;20046;-73
2022/06/18 08:32:35;;;;;;;5.18;2.47;;;32.00;32.80;;;;;;4991314;28;20022;-74
2022/06/18 08:35:01;;;;;;;7.75;2.17;;;32.00;32.10;;;;;;4989468;28;20042;-72
2022/06/18 08:37:29;;;;;;;6.18;2.35;;;31.90;32.00;;;;;;4976945;28;20022;-72
2022/06/18 08:39:57;;;;;;;5.43;2.17;;;31.80;32.00;;;;;;4976301;28;20027;-70
2022/06/18 08:42:39;;;;;;;12.30;2.30;;;31.70;33.00;;;;;;4977392;28;20405;-75
2022/06/18 08:45:28;;;;;;;5.57;2.05;;;31.70;31.60;;;;;;4993626;28;20452;-75
2022/06/18 08:48:03;;;;;;;6.05;2.17;;;31.60;32.40;;;;;;4996240;28;20054;-75
2022/06/18 08:50:53;;;;;;;4.85;2.40;;;31.60;32.00;;;;;;4996143;28;20038;-74
2022/06/18 08:53:43;;;;;;;11.68;2.40;;;31.60;32.20;;;;;;4994095;28;20038;-72
2022/06/18 08:56:20;;;;;;;6.07;2.58;;;31.60;31.40;;;;;;4994186;28;20514;-71
2022/06/18 08:59:29;;;;;;;6.18;2.47;;;31.70;32.60;;;;;;4995477;28;20033;-73
2022/06/18 09:02:16;;;;;;;10.65;2.63;;;31.60;30.30;;;;;;4995203;28;20476;-73
2022/06/18 09:05:01;;;;;;;6.05;2.40;;;31.70;30.90;;;;;;4995355;28;20100;-72
2022/06/18 09:07:41;;;;;;;4.35;2.25;;;31.70;30.80;;;;;;4995343;28;20046;-73
2022/06/18 09:10:25;;;;;;;7.63;2.20;;;31.70;30.80;;;;;;4994982;28;20440;-72
2022/06/18 09:12:59;;;;;;;7.20;1.80;;;31.60;30.60;;;;;;4995392;28;20076;-72
2022/06/18 09:15:34;;;;;;;9.57;2.53;;;31.50;32.40;;;;;;4996315;28;20510;-73
2022/06/18 09:18:13;;;;;;;7.47;2.28;;;31.50;30.80;;;;;;4995337;28;20030;-74
2022/06/18 09:20:48;;;;;;;5.03;2.17;;;31.60;31.90;;;;;;4995295;28;20074;-72
2022/06/18 09:23:20;;;;;;;7.45;2.30;;;31.60;32.10;;;;;;4994993;28;20026;-72
2022/06/18 09:25:50;;;;;;;6.28;2.70;;;31.60;32.00;;;;;;4995055;28;20058;-71
2022/06/18 09:28:30;;;;;;;5.95;2.10;;;31.60;30.90;;;;;;4994629;28;20100;-71
2022/06/18 09:31:29;;;;;;;4.20;2.25;;;31.50;31.90;;;;;;4995473;28;20041;-72
2022/06/18 09:34:25;;;;;;;9.90;2.28;;;31.50;30.90;;;;;;4994598;28;20494;-70
2022/06/18 09:36:57;;;;;;;8.10;2.28;;;31.50;31.20;;;;;;4995444;28;20037;-70
2022/06/18 09:39:39;;;;;;;3.42;2.13;;;31.50;31.70;;;;;;4995251;28;20034;-77
2022/06/18 09:42:20;;;;;;;7.90;2.42;;;31.60;31.50;;;;;;4998644;28;20058;-70
2022/06/18 09:45:09;;;;;;;6.43;2.22;;;31.60;31.60;;;;;;5008855;28;20032;-75
2022/06/18 09:47:37;;;;;;;9.95;2.42;;;31.70;32.50;;;;;;5007456;28;20026;-72
2022/06/18 09:50:11;;;;;;;11.63;2.88;;;31.70;31.50;;;;;;4994389;28;20060;-76
2022/06/18 09:52:39;;;;;;;9.20;2.92;;;31.70;32.40;;;;;;4994446;28;20085;-72
2022/06/18 09:55:18;;;;;;;5.68;1.95;;;31.70;31.90;;;;;;4994399;28;20022;-72
2022/06/18 09:57:52;;;;;;;4.47;2.20;;;31.70;32.80;;;;;;4994705;28;20053;-78
2022/06/18 10:00:24;;;;;;;6.78;2.10;;;31.70;32.70;;;;;;5004071;28;20026;-69
2022/06/18 10:03:01;;;;;;;6.32;2.50;;;31.60;31.60;;;;;;5014136;28;20092;-73
2022/06/18 10:08:38;;;;;;;7.90;2.53;;;31.60;31.80;;;;;;5013762;28;20127;-70
2022/06/18 10:11:09;;;;;;;9.57;2.53;;;31.60;31.70;;;;;;5008934;28;20048;-71
2022/06/18 10:13:45;;;;;;;7.03;2.53;;;31.60;32.40;;;;;;5000040;28;20549;-71
2022/06/18 10:16:31;;;;;;;6.82;2.40;;;31.60;33.10;;;;;;4996771;28;20077;-72
2022/06/18 10:19:27;;;;;;;7.93;2.17;;;31.70;32.00;;;;;;4999447;28;20490;-70
2022/06/18 10:22:38;;;;;;;12.40;3.13;;;31.70;32.30;;;;;;5007043;28;20022;-71
2022/06/18 10:25:06;;;;;;;5.63;2.85;;;31.70;32.10;;;;;;4972281;28;20031;-70
2022/06/18 10:27:44;;;;;;;6.15;2.33;;;31.70;32.20;;;;;;4972008;28;20463;-71
2022/06/18 10:30:44;;;;;;;4.72;2.30;;;31.80;32.00;;;;;;4984041;28;20097;-78
2022/06/18 10:33:29;;;;;;;4.47;2.10;;;31.80;31.80;;;;;;4992550;28;20057;-70
2022/06/18 10:36:26;;;;;;;9.32;2.55;;;31.80;31.30;;;;;;4992316;28;20030;-72
2022/06/18 10:39:11;;;;;;;8.18;2.53;;;31.80;31.60;;;;;;4992181;28;20036;-73
2022/06/18 10:42:02;;;;;;;4.13;2.30;;;31.90;32.60;;;;;;4993732;28;20371;-75
2022/06/18 10:45:01;;;;;;;5.50;2.72;;;31.90;31.50;;;;;;4992252;28;20148;-74
2022/06/18 10:47:38;;;;;;;5.88;2.17;;;32.00;31.60;;;;;;4991075;28;20484;-75
2022/06/18 10:50:11;;;;;;;4.07;2.20;;;32.00;32.40;;;;;;4983434;28;20140;-76
2022/06/18 10:52:38;;;;;;;6.93;2.30;;;32.00;32.70;;;;;;4993246;28;20483;-73
2022/06/18 10:55:17;;;;;;;9.48;2.30;;;32.10;31.80;;;;;;4993489;28;20153;-72
2022/06/18 10:57:43;;;;;;;4.35;1.90;;;32.20;31.20;;;;;;4988096;28;20384;-74
2022/06/18 11:00:25;;;;;;;6.80;2.50;;;32.20;32.60;;;;;;4989339;28;20038;-73
2022/06/18 11:03:04;;;;;;;5.88;2.42;;;32.20;32.10;;;;;;4985152;28;20119;-76
2022/06/18 11:05:31;;;;;;;8.93;2.60;;;32.20;30.80;;;;;;4974660;28;20030;-79
2022/06/18 11:08:00;;;;;;;8.02;2.38;;;32.30;31.60;;;;;;4976043;28;20042;-77
2022/06/18 11:10:43;;;;;;;4.03;2.17;;;32.40;30.00;;;;;;4973195;28;20023;-75
2022/06/18 11:13:29;;;;;;;3.58;1.88;;;32.50;31.90;;;;;;4988761;28;20031;-74
2022/06/18 11:16:25;;;;;;;5.90;2.25;;;32.50;29.30;;;;;;4988673;28;20043;-72
2022/06/18 11:19:02;;;;;;;7.20;2.08;;;32.50;30.60;;;;;;4969668;28;20184;-74
2022/06/18 11:21:45;;;;;;;4.43;1.85;;;32.60;31.00;;;;;;4973557;28;20122;-73
2022/06/18 11:24:11;;;;;;;5.22;2.13;;;32.70;28.90;;;;;;4973940;28;20035;-73
2022/06/18 11:26:56;;;;;;;7.97;2.17;;;32.70;30.50;;;;;;4973547;28;20473;-72
2022/06/18 11:29:41;;;;;;;5.68;2.38;;;32.70;30.20;;;;;;4988434;28;20501;-78
2022/06/18 11:32:31;;;;;;;5.68;1.85;;;32.80;28.60;;;;;;4973951;28;20038;-75
2022/06/18 11:35:19;;;;;;;4.20;2.20;;;32.90;29.60;;;;;;4979422;28;20552;-77
2022/06/18 11:38:06;;;;;;;3.85;2.05;;;32.90;28.60;;;;;;4995495;28;20376;-74
2022/06/18 11:40:32;;;;;;;2.28;1.75;;;32.90;30.20;;;;;;4977950;28;20461;-69
2022/06/18 11:43:19;;;;;;;4.68;2.42;;;32.90;30.00;;;;;;4976600;28;20117;-72
2022/06/18 11:45:56;;;;;;;18.02;6.30;;;33.00;29.00;;;;;;4976327;28;20054;-74
2022/06/18 11:49:06;;;;;;;10.20;3.40;;;33.00;31.80;;;;;;4979738;28;20034;-76
2022/06/18 11:51:56;;;;;;;14.48;3.28;;;33.00;29.60;;;;;;4989521;28;20047;-73
2022/06/18 11:54:38;;;;;;;9.07;2.45;;;33.10;29.40;;;;;;4977730;28;20026;-74
2022/06/18 11:57:16;;;;;;;9.07;2.35;;;33.20;29.20;;;;;;4982336;28;20120;-71
2022/06/18 11:59:52;;;;;;;15.90;5.13;;;33.20;30.90;;;;;;4983188;28;20019;-73
2022/06/18 12:02:48;;;;;;;6.93;2.83;;;33.20;33.10;;;;;;4976185;28;20473;-73
2022/06/18 12:05:35;;;;;;;11.43;2.85;;;33.30;29.40;;;;;;4987639;28;20109;-74
2022/06/18 12:08:03;;;;;;;9.20;3.33;;;33.30;28.90;;;;;;4976846;28;20064;-73
2022/06/18 12:10:47;;;;;;;7.05;3.00;;;33.40;30.90;;;;;;4976499;28;20038;-74
2022/06/18 12:13:28;;;;;;;6.15;2.70;;;33.40;30.40;;;;;;4976268;28;20038;-72
2022/06/18 12:16:05;;;;;;;6.07;2.60;;;33.50;28.70;;;;;;4976402;28;20344;-73
2022/06/18 12:19:00;;;;;;;5.13;2.67;;;33.50;28.50;;;;;;4974973;28;20057;-73
2022/06/18 12:21:29;;;;;;;6.85;2.45;;;33.40;28.40;;;;;;4972692;28;20035;-73
2022/06/18 12:24:08;;;;;;;5.47;2.55;;;33.50;29.90;;;;;;4976425;28;20027;-74
2022/06/18 12:26:45;;;;;;;5.45;2.53;;;33.50;28.20;;;;;;4976032;28;20029;-73
2022/06/18 12:29:25;;;;;;;6.20;2.90;;;33.50;30.00;;;;;;4990875;28;20058;-70
2022/06/18 12:32:18;;;;;;;8.68;2.85;;;33.50;28.20;;;;;;4976049;28;20029;-71
2022/06/18 12:34:55;;;;;;;5.15;2.28;;;33.50;27.90;;;;;;4976171;28;20030;-70
2022/06/18 12:37:36;;;;;;;8.55;2.95;;;33.50;27.40;;;;;;4975660;28;20078;-73
2022/06/18 12:40:49;;;;;;;7.28;2.20;;;33.50;27.50;;;;;;4975872;28;20102;-73
2022/06/18 12:43:25;;;;;;;7.00;3.30;;;33.50;26.70;;;;;;4966460;28;20035;-73
2022/06/18 12:45:58;;;;;;;4.78;2.20;;;33.50;28.10;;;;;;4975173;28;20826;-69
2022/06/18 12:48:34;;;;;;;4.65;2.08;;;33.60;27.20;;;;;;4975728;28;20026;-71
2022/06/18 12:51:12;;;;;;;12.75;3.50;;;33.70;27.30;;;;;;4975156;28;20058;-71
2022/06/18 12:53:59;;;;;;;10.60;2.88;;;33.70;28.20;;;;;;4975610;28;20019;-69
2022/06/18 12:56:58;;;;;;;5.75;2.65;;;33.70;28.20;;;;;;4975645;28;20058;-71
2022/06/18 12:59:29;;;;;;;6.90;2.75;;;33.80;27.70;;;;;;4978495;28;20047;-73
2022/06/18 13:02:19;;;;;;;5.50;2.30;;;33.80;27.40;;;;;;4981572;28;20488;-70
2022/06/18 13:04:54;;;;;;;5.18;1.83;;;33.90;27.00;;;;;;4976811;28;20027;-71
2022/06/18 13:08:02;;;;;;;6.88;2.30;;;33.90;26.80;;;;;;4975646;28;20027;-72
2022/06/18 13:10:45;;;;;;;6.32;2.70;;;33.90;26.70;;;;;;4945124;28;20511;-74
2022/06/18 13:13:49;;;;;;;5.75;2.35;;;33.90;27.50;;;;;;4975662;28;20097;-72
2022/06/18 13:16:19;;;;;;;5.03;2.10;;;33.90;27.80;;;;;;4975684;28;20030;-71
2022/06/18 13:19:11;;;;;;;5.55;2.40;;;33.90;27.40;;;;;;4975962;28;20027;-71
2022/06/18 13:21:38;;;;;;;5.80;2.28;;;34.00;27.70;;;;;;4975480;28;20062;-72
2022/06/18 13:30:32;;;;;;;5.43;2.60;;;34.10;27.70;;;;;;4975198;28;20554;-74
2022/06/18 13:33:12;;;;;;;5.25;2.50;;;34.00;27.00;;;;;;4976523;28;20050;-71